^^
Your Local Weather - Clay, NY Station Historical Data
Daily Summary for January 17, 2017 Units:  Metric    English   Both
« Previous Day
Next Day »
Daily Weekly Monthly Yearly Custom
  High: Low: Average:
Temperature: 1.1 °C -4.4 °C -1 °C
Dew Point: 0.1 °C -6.4 °C -3 °C
Humidity: 93% 76% 86%
Wind Speed: 9.7km/h 0km/h 3.9km/h
Wind Gust: 17.7km/h - -
Wind- - East
Pressure: 1023.2 hPa 1009.7 hPa -
Precipitation: 20.83 mm    
Historical Graphs
 
 
Tabular Data for January 17, 2017
Time Temperature Dew Point Pressure Wind Wind Speed Wind Gust Humidity Rainfall Rate (Hourly) solar
00:02 -4 °C -6.2 °C 1023.2 hPa Calm     85% 0 mm 0 W/m2
00:08 -4.1 °C -6.2 °C 1023.2 hPa Calm     85% 0 mm 0 W/m2
00:14 -4.2 °C -6.3 °C 1023.2 hPa Calm     85% 0 mm 0 W/m2
00:20 -4.2 °C -6.2 °C 1022.9 hPa Calm     86% 0 mm 0 W/m2
00:26 -4.3 °C -6.3 °C 1022.9 hPa Calm     86% 0 mm 0 W/m2
00:32 -4.4 °C -6.4 °C 1022.9 hPa Calm     86% 0 mm 0 W/m2
00:38 -4.3 °C -6.3 °C 1022.9 hPa Calm     86% 0 mm 0 W/m2
00:44 -4.2 °C -6.2 °C 1022.9 hPa Calm     86% 0 mm 0 W/m2
00:50 -4.2 °C -6.2 °C 1023.2 hPa Calm     86% 0 mm 0 W/m2
00:56 -4.1 °C -6.1 °C 1023.2 hPa Calm     86% 0 mm 0 W/m2
01:02 -3.8 °C -5.6 °C 1023.2 hPa Calm     87% 0 mm 0 W/m2
01:08 -3.7 °C -5.5 °C 1023.2 hPa Calm     87% 0 mm 0 W/m2
01:14 -3.6 °C -5.4 °C 1023.2 hPa Calm     87% 0 mm 0 W/m2
01:20 -3.4 °C -5.3 °C 1023.2 hPa Calm     87% 0 mm 0 W/m2
01:26 -3.2 °C -5.1 °C 1023.2 hPa Calm     87% 0 mm 0 W/m2
01:32 -3.1 °C -4.9 °C 1023.2 hPa Calm     87% 0 mm 0 W/m2
01:38 -3 °C -5 °C 1023.2 hPa Calm     86% 0 mm 0 W/m2
01:46 -3 °C -5.3 °C 1022.9 hPa Calm     84% 0 mm 0 W/m2
01:52 -2.9 °C -5.1 °C 1022.9 hPa Calm     85% 0 mm 0 W/m2
01:58 -3 °C -5.2 °C 1022.9 hPa Calm     85% 0 mm 0 W/m2
02:06 -3.1 °C -5.2 °C 1022.9 hPa Calm     85% 0 mm 0 W/m2
02:12 -3.1 °C -5.4 °C 1022.9 hPa Calm     84% 0 mm 0 W/m2
02:18 -3.1 °C -5.4 °C 1022.9 hPa Calm     84% 0 mm 0 W/m2
02:24 -2.8 °C -5.5 °C 1022.9 hPa East 1.6 km/h 3.2 km/h 82% 0 mm 0 W/m2
02:30 -2.7 °C -5.5 °C 1022.6 hPa NE 1.6 km/h 1.6 km/h 81% 0 mm 0 W/m2
02:36 -2.6 °C -5.6 °C 1022.6 hPa NE 1.6 km/h 1.6 km/h 80% 0 mm 0 W/m2
02:42 -2.6 °C -5.6 °C 1022.6 hPa Calm   3.2 km/h 80% 0 mm 0 W/m2
02:48 -2.6 °C -5.6 °C 1022.6 hPa Calm   3.2 km/h 80% 0 mm 0 W/m2
02:54 -2.6 °C -5.6 °C 1022.6 hPa Calm   1.6 km/h 80% 0 mm 0 W/m2
03:00 -2.6 °C -5.6 °C 1022.6 hPa Calm     80% 0 mm 0 W/m2
03:06 -2.6 °C -5.6 °C 1022.6 hPa Calm   3.2 km/h 80% 0 mm 0 W/m2
03:12 -2.6 °C -5.6 °C 1022.6 hPa ENE 1.6 km/h 1.6 km/h 80% 0 mm 0 W/m2
03:18 -2.6 °C -5.6 °C 1022.6 hPa ENE 1.6 km/h 1.6 km/h 80% 0 mm 0 W/m2
03:24 -2.6 °C -5.4 °C 1022.6 hPa Calm   1.6 km/h 81% 0 mm 0 W/m2
03:30 -2.6 °C -5.4 °C 1022.6 hPa Calm   3.2 km/h 81% 0 mm 0 W/m2
03:36 -2.6 °C -5.7 °C 1022.6 hPa Calm   3.2 km/h 79% 0 mm 0 W/m2
03:42 -2.5 °C -5.8 °C 1022.6 hPa Calm   1.6 km/h 78% 0 mm 0 W/m2
03:48 -2.5 °C -5.8 °C 1022.6 hPa Calm   1.6 km/h 78% 0 mm 0 W/m2
03:54 -2.6 °C -5.9 °C 1022.6 hPa Calm     78% 0 mm 0 W/m2
04:00 -2.6 °C -5.6 °C 1022.6 hPa Calm   1.6 km/h 80% 0 mm 0 W/m2
04:06 -2.5 °C -5.8 °C 1022.2 hPa ENE 1.6 km/h 3.2 km/h 78% 0 mm 0 W/m2
04:12 -2.4 °C -5.7 °C 1022.6 hPa ENE 1.6 km/h 3.2 km/h 78% 0 mm 0 W/m2
04:18 -2.3 °C -5.8 °C 1021.9 hPa ENE 1.6 km/h 3.2 km/h 77% 0 mm 0 W/m2
04:24 -2.3 °C -5.8 °C 1021.9 hPa ENE 1.6 km/h 3.2 km/h 77% 0 mm 0 W/m2
04:30 -2.3 °C -6 °C 1021.9 hPa Calm   1.6 km/h 76% 0 mm 0 W/m2
04:36 -2.4 °C -5.9 °C 1021.9 hPa Calm   1.6 km/h 77% 0 mm 0 W/m2
04:42 -2.4 °C -6.1 °C 1021.9 hPa Calm     76% 0 mm 0 W/m2
04:48 -2.4 °C -6.1 °C 1021.9 hPa Calm   1.6 km/h 76% 0 mm 0 W/m2
04:54 -2.4 °C -6.1 °C 1021.9 hPa Calm     76% 0 mm 0 W/m2
05:00 -2.6 °C -6.1 °C 1021.9 hPa Calm     77% 0 mm 0 W/m2
05:06 -2.6 °C -6.1 °C 1021.6 hPa Calm     77% 0 mm 0 W/m2
05:12 -2.6 °C -6.1 °C 1021.6 hPa Calm     77% 0 mm 0 W/m2
05:18 -2.7 °C -6.2 °C 1021.6 hPa Calm   1.6 km/h 77% 0 mm 0 W/m2
05:24 -2.7 °C -6.2 °C 1021.6 hPa Calm     77% 0 mm 0 W/m2
05:30 -2.7 °C -5.8 °C 1021.9 hPa Calm     79% 0 mm 0 W/m2
05:36 -2.8 °C -5.9 °C 1021.6 hPa Calm     79% 0 mm 0 W/m2
05:42 -2.8 °C -5.9 °C 1021.6 hPa Calm     79% 0 mm 0 W/m2
05:48 -2.9 °C -6 °C 1021.6 hPa Calm     79% 0 mm 0 W/m2
05:54 -2.9 °C -5.9 °C 1021.6 hPa Calm   1.6 km/h 80% 0 mm 0 W/m2
06:00 -2.9 °C -5.6 °C 1021.6 hPa Calm     82% 0 mm 0 W/m2
06:06 -2.9 °C -5.9 °C 1021.6 hPa Calm   4.8 km/h 80% 0 mm 0 W/m2
06:12 -2.9 °C -5.7 °C 1021.6 hPa Calm   1.6 km/h 81% 0 mm 0 W/m2
06:18 -2.9 °C -5.8 °C 1021.6 hPa Calm   1.6 km/h 80% 0 mm 0 W/m2
06:24 -2.9 °C -5.8 °C 1021.6 hPa Calm   3.2 km/h 80% 0 mm 0 W/m2
06:30 -2.9 °C -5.8 °C 1021.6 hPa Calm     80% 0 mm 0 W/m2
06:36 -2.9 °C -5.8 °C 1021.2 hPa Calm     80% 0 mm 0 W/m2
06:42 -2.9 °C -5.8 °C 1021.2 hPa Calm     80% 0 mm 0 W/m2
06:48 -2.8 °C -5.8 °C 1021.2 hPa Calm     80% 0 mm 0 W/m2
06:54 -2.8 °C -5.8 °C 1021.2 hPa Calm   3.2 km/h 80% 0 mm 0 W/m2
07:00 -2.8 °C -5.9 °C 1021.2 hPa Calm     79% 0 mm 0 W/m2
07:06 -2.7 °C -5.8 °C 1020.9 hPa ENE 1.6 km/h 3.2 km/h 79% 0 mm 0 W/m2
07:12 -2.7 °C -5.8 °C 1020.9 hPa ENE 1.6 km/h 1.6 km/h 79% 0 mm 0 W/m2
07:18 -2.6 °C -5.8 °C 1020.9 hPa ENE 1.6 km/h 4.8 km/h 79% 0 mm 0 W/m2
07:24 -2.6 °C -5.8 °C 1020.9 hPa ENE 1.6 km/h 6.4 km/h 79% 0 mm 0 W/m2
07:30 -2.6 °C -5.8 °C 1020.9 hPa ENE 1.6 km/h 3.2 km/h 79% 0 mm 0 W/m2
07:36 -2.6 °C -5.8 °C 1020.5 hPa ENE 3.2 km/h 3.2 km/h 79% 0 mm 0 W/m2
07:42 -2.6 °C -5.6 °C 1020.5 hPa NE 1.6 km/h 4.8 km/h 80% 0 mm 5 W/m2
07:48 -2.6 °C -5.6 °C 1020.5 hPa ENE 3.2 km/h 4.8 km/h 80% 0 mm 7 W/m2
07:54 -2.6 °C -5.6 °C 1020.5 hPa East 3.2 km/h 3.2 km/h 80% 0 mm 9 W/m2
08:00 -2.6 °C -5.6 °C 1020.5 hPa East 1.6 km/h 1.6 km/h 80% 0 mm 11 W/m2
08:06 -2.6 °C -5.6 °C 1020.5 hPa ENE 3.2 km/h 4.8 km/h 80% 0 mm 14 W/m2
08:12 -2.6 °C -5.7 °C 1020.2 hPa East 4.8 km/h 9.7 km/h 79% 0 mm 18 W/m2
08:18 -2.4 °C -5.6 °C 1020.2 hPa ENE 4.8 km/h 9.7 km/h 79% 0 mm 19 W/m2
08:24 -2.4 °C -5.6 °C 1019.9 hPa NE 3.2 km/h 8 km/h 79% 0 mm 23 W/m2
08:30 -2.2 °C -5.4 °C 1019.9 hPa East 3.2 km/h 3.2 km/h 79% 0 mm 21 W/m2
08:36 -2.2 °C -5.3 °C 1019.9 hPa East 3.2 km/h 3.2 km/h 79% 0 mm 23 W/m2
08:42 -2.1 °C -5.2 °C 1019.5 hPa East 3.2 km/h 4.8 km/h 79% 0 mm 28 W/m2
08:48 -2 °C -5.2 °C 1019.5 hPa East 3.2 km/h 6.4 km/h 79% 0 mm 40 W/m2
08:54 -1.9 °C -5.1 °C 1019.5 hPa East 3.2 km/h 8 km/h 79% 0 mm 49 W/m2
09:00 -1.8 °C -5 °C 1019.5 hPa ENE 3.2 km/h 3.2 km/h 79% 0 mm 56 W/m2
09:06 -1.7 °C -5.1 °C 1019.2 hPa NE 1.6 km/h 3.2 km/h 78% 0 mm 40 W/m2
09:12 -1.7 °C -4.8 °C 1019.2 hPa SE 1.6 km/h 3.2 km/h 79% 0 mm 35 W/m2
09:18 -1.6 °C -4.8 °C 1019.2 hPa ESE 1.6 km/h 3.2 km/h 79% 0 mm 39 W/m2
09:24 -1.6 °C -4.9 °C 1019.2 hPa ENE 1.6 km/h 6.4 km/h 78% 0 mm 49 W/m2
09:30 -1.6 °C -4.9 °C 1019.2 hPa ENE 3.2 km/h 6.4 km/h 78% 0 mm 47 W/m2
09:36 -1.6 °C -4.9 °C 1019.2 hPa NE 4.8 km/h 6.4 km/h 78% 0 mm 42 W/m2
09:42 -1.7 °C -5 °C 1019.2 hPa ENE 4.8 km/h 8 km/h 78% 0 mm 39 W/m2
09:48 -1.7 °C -5.2 °C 1019.2 hPa East 4.8 km/h 11.3 km/h 77% 0 mm 32 W/m2
09:54 -1.7 °C -5 °C 1019.2 hPa ENE 4.8 km/h 8 km/h 78% 0 mm 35 W/m2
10:00 -1.7 °C -5 °C 1019.2 hPa ENE 4.8 km/h 4.8 km/h 78% 0 mm 33 W/m2
10:06 -1.6 °C -4.9 °C 1019.2 hPa East 3.2 km/h 8 km/h 78% 0 mm 30 W/m2
10:12 -1.4 °C -4.4 °C 1019.2 hPa East 1.6 km/h 3.2 km/h 80% 0 mm 30 W/m2
10:18 -1.4 °C -4.4 °C 1019.2 hPa East 1.6 km/h 3.2 km/h 80% 0 mm 37 W/m2
10:26 -1.3 °C -4 °C 1019.2 hPa ENE 1.6 km/h 4.8 km/h 82% 0 mm 35 W/m2
10:32 -1.3 °C -3.8 °C 1018.8 hPa East 1.6 km/h 1.6 km/h 83% 0 mm 33 W/m2
10:38 -1.3 °C -3.8 °C 1018.8 hPa ENE 3.2 km/h 4.8 km/h 83% 0 mm 32 W/m2
10:44 -1.2 °C -3.7 °C 1018.8 hPa ENE 3.2 km/h 4.8 km/h 83% 0 mm 39 W/m2
10:50 -1.2 °C -3.7 °C 1018.2 hPa East 4.8 km/h 4.8 km/h 83% 0 mm 44 W/m2
10:56 -1.2 °C -3.6 °C 1018.2 hPa East 6.4 km/h 6.4 km/h 84% 0 mm 51 W/m2
11:04 -1.2 °C -3.4 °C 1017.8 hPa ENE 6.4 km/h 6.4 km/h 85% 0 mm 56 W/m2
11:10 -1.1 °C -3.3 °C 1017.5 hPa ENE 6.4 km/h 6.4 km/h 85% 0 mm 60 W/m2
11:16 -1 °C -3.2 °C 1017.2 hPa ENE 6.4 km/h 12.9 km/h 85% 0 mm 79 W/m2
11:22 -0.9 °C -3.3 °C 1017.2 hPa East 8 km/h 9.7 km/h 84% 0 mm 56 W/m2
11:28 -0.8 °C -3.1 °C 1016.8 hPa ENE 6.4 km/h 9.7 km/h 85% 1.78 mm 69 W/m2
11:34 -0.7 °C -2.9 °C 1016.8 hPa East 4.8 km/h 8 km/h 85% 1.52 mm 67 W/m2
11:40 -0.6 °C -2.6 °C 1016.8 hPa East 3.2 km/h 3.2 km/h 86% 1.02 mm 60 W/m2
11:46 -0.4 °C -2.5 °C 1016.5 hPa ENE 4.8 km/h 12.9 km/h 86% 0 mm 54 W/m2
11:52 -0.3 °C -2.4 °C 1016.1 hPa ENE 4.8 km/h 4.8 km/h 86% 0 mm 69 W/m2
11:58 -0.2 °C -2.3 °C 1016.1 hPa East 4.8 km/h 6.4 km/h 86% 3.05 mm 42 W/m2
12:06 -0.1 °C -2 °C 1015.8 hPa ENE 3.2 km/h 4.8 km/h 87% 1.27 mm 81 W/m2
12:12 0 °C -1.9 °C 1015.5 hPa ESE 6.4 km/h 6.4 km/h 87% 0 mm 81 W/m2
12:18 0.1 °C -1.8 °C 1015.1 hPa East 4.8 km/h 12.9 km/h 87% 0 mm 62 W/m2
12:26 0.1 °C -1.9 °C 1015.1 hPa ENE 6.4 km/h 11.3 km/h 86% 0 mm 37 W/m2
12:32 0.2 °C -1.9 °C 1015.1 hPa SE 4.8 km/h 6.4 km/h 86% 0 mm 28 W/m2
12:38 0.2 °C -1.8 °C 1015.1 hPa SE 4.8 km/h 11.3 km/h 86% 0 mm 21 W/m2
12:44 0.3 °C -1.8 °C 1015.1 hPa East 4.8 km/h 4.8 km/h 86% 0 mm 14 W/m2
12:50 0.3 °C -1.6 °C 1015.5 hPa ENE 3.2 km/h 3.2 km/h 87% 0 mm 11 W/m2
12:56 0.4 °C -1.5 °C 1015.5 hPa East 4.8 km/h 11.3 km/h 87% 2.29 mm 9 W/m2
13:02 0.3 °C -1.5 °C 1015.1 hPa ENE 4.8 km/h 4.8 km/h 88% 1.52 mm 9 W/m2
13:08 0.3 °C -1.5 °C 1015.1 hPa ENE 4.8 km/h 8 km/h 88% 8.13 mm 14 W/m2
13:16 0.3 °C -1.3 °C 1014.8 hPa ENE 4.8 km/h 4.8 km/h 89% 4.83 mm 19 W/m2
13:22 0.2 °C -1.4 °C 1014.4 hPa ENE 6.4 km/h 8 km/h 89% 11.18 mm 9 W/m2
13:28 0.2 °C -1.4 °C 1014.1 hPa ENE 8 km/h 11.3 km/h 89% 6.6 mm 14 W/m2
13:34 0.1 °C -1.5 °C 1014.1 hPa ENE 8 km/h 8 km/h 89% 4.06 mm 18 W/m2
13:40 0.1 °C -1.5 °C 1014.1 hPa East 8 km/h 11.3 km/h 89% 4.32 mm 16 W/m2
13:46 0.1 °C -1.3 °C 1013.8 hPa NE 9.7 km/h 11.3 km/h 90% 7.37 mm 9 W/m2
13:52 0.1 °C -1.3 °C 1013.8 hPa ESE 9.7 km/h 11.3 km/h 90% 8.13 mm 9 W/m2
13:58 0.2 °C -1.3 °C 1013.8 hPa East 9.7 km/h 11.3 km/h 90% 5.84 mm 12 W/m2
14:04 0.2 °C -1.3 °C 1013.4 hPa East 8 km/h 11.3 km/h 90% 5.84 mm 11 W/m2
14:10 0.2 °C -1.1 °C 1013.4 hPa NE 8 km/h 11.3 km/h 91% 3.05 mm 11 W/m2
14:16 0.2 °C -1.1 °C 1013.1 hPa ESE 9.7 km/h 14.5 km/h 91% 3.56 mm 25 W/m2
14:22 0.2 °C -1.1 °C 1014.1 hPa SE 6.4 km/h 8 km/h 91% 5.33 mm 5 W/m2
14:28 0.2 °C -1.1 °C 1014.4 hPa ENE 4.8 km/h 8 km/h 91% 9.4 mm 9 W/m2
14:34 0.2 °C -1.1 °C 1014.1 hPa ENE 4.8 km/h 4.8 km/h 91% 14.99 mm 14 W/m2
14:40 0.2 °C -1.1 °C 1013.8 hPa ENE 4.8 km/h 4.8 km/h 91% 5.84 mm 16 W/m2
14:46 0.2 °C -1.1 °C 1013.4 hPa East 4.8 km/h 8 km/h 91% 8.64 mm 12 W/m2
14:52 0.2 °C -1 °C 1013.1 hPa SE 8 km/h 11.3 km/h 92% 6.35 mm 11 W/m2
14:58 0.2 °C -1 °C 1013.1 hPa ENE 9.7 km/h 12.9 km/h 92% 3.56 mm 12 W/m2
15:04 0.2 °C -1 °C 1013.1 hPa East 9.7 km/h 9.7 km/h 92% 4.83 mm 11 W/m2
15:10 0.2 °C -1 °C 1013.1 hPa East 8 km/h 8 km/h 92% 5.33 mm 12 W/m2
15:16 0.2 °C -1 °C 1013.1 hPa East 8 km/h 12.9 km/h 92% 5.59 mm 14 W/m2
15:22 0.2 °C -0.9 °C 1013.1 hPa East 8 km/h 9.7 km/h 92% 2.79 mm 12 W/m2
15:28 0.3 °C -0.9 °C 1013.1 hPa SE 8 km/h 9.7 km/h 92% 3.81 mm 14 W/m2
15:34 0.3 °C -0.9 °C 1013.1 hPa East 6.4 km/h 8 km/h 92% 5.59 mm 16 W/m2
15:40 0.3 °C -0.8 °C 1013.1 hPa SE 6.4 km/h 6.4 km/h 92% 2.79 mm 14 W/m2
15:46 0.3 °C -0.8 °C 1012.8 hPa NE 4.8 km/h 11.3 km/h 92% 2.54 mm 14 W/m2
15:52 0.3 °C -0.8 °C 1012.8 hPa East 8 km/h 8 km/h 92% 2.54 mm 11 W/m2
15:58 0.3 °C -0.8 °C 1012.8 hPa ENE 6.4 km/h 8 km/h 92% 3.05 mm 11 W/m2
16:04 0.3 °C -0.9 °C 1012.8 hPa SE 8 km/h 8 km/h 92% 1.52 mm 11 W/m2
16:10 0.3 °C -0.9 °C 1012.8 hPa ESE 6.4 km/h 6.4 km/h 92% 1.27 mm 11 W/m2
16:16 0.3 °C -0.9 °C 1012.4 hPa ENE 6.4 km/h 6.4 km/h 92% 2.29 mm 9 W/m2
16:22 0.3 °C -0.8 °C 1012.4 hPa NE 6.4 km/h 11.3 km/h 92% 1.78 mm 5 W/m2
16:28 0.3 °C -0.9 °C 1012.4 hPa ENE 8 km/h 11.3 km/h 92% 3.3 mm 7 W/m2
16:34 0.3 °C -0.8 °C 1012.4 hPa East 6.4 km/h 6.4 km/h 92% 2.03 mm 7 W/m2
16:40 0.4 °C -0.8 °C 1012.4 hPa SE 6.4 km/h 6.4 km/h 92% 1.02 mm 5 W/m2
16:46 0.3 °C -0.7 °C 1012.4 hPa ENE 6.4 km/h 14.5 km/h 93% 1.02 mm 0 W/m2
16:52 0.3 °C -0.8 °C 1012.1 hPa ESE 6.4 km/h 11.3 km/h 92% 1.02 mm 0 W/m2
16:58 0.4 °C -0.6 °C 1012.1 hPa East 6.4 km/h 11.3 km/h 93% 1.02 mm 0 W/m2
17:04 0.3 °C -0.7 °C 1012.1 hPa ENE 8 km/h 14.5 km/h 93% 1.02 mm 0 W/m2
17:10 0.3 °C -0.7 °C 1012.1 hPa East 9.7 km/h 9.7 km/h 93% 1.02 mm 0 W/m2
17:16 0.4 °C -0.6 °C 1012.1 hPa ENE 8 km/h 9.7 km/h 93% 0 mm 0 W/m2
17:22 0.4 °C -0.6 °C 1012.1 hPa ENE 8 km/h 14.5 km/h 93% 0 mm 0 W/m2
17:28 0.4 °C -0.6 °C 1012.1 hPa ESE 6.4 km/h 14.5 km/h 93% 0 mm 0 W/m2
17:34 0.4 °C -0.6 °C 1012.1 hPa East 6.4 km/h 11.3 km/h 93% 0 mm 0 W/m2
17:40 0.3 °C -0.7 °C 1012.1 hPa ESE 6.4 km/h 6.4 km/h 93% 0 mm 0 W/m2
17:46 0.3 °C -0.7 °C 1012.1 hPa ENE 6.4 km/h 17.7 km/h 93% 0 mm 0 W/m2
17:52 0.4 °C -0.8 °C 1011.7 hPa East 8 km/h 8 km/h 92% 2.54 mm 0 W/m2
17:58 0.4 °C -0.8 °C 1011.7 hPa East 6.4 km/h 8 km/h 92% 2.03 mm 0 W/m2
18:04 0.4 °C -0.6 °C 1011.7 hPa ESE 6.4 km/h 12.9 km/h 93% 2.29 mm 0 W/m2
18:10 0.4 °C -0.8 °C 1011.7 hPa ENE 6.4 km/h 6.4 km/h 92% 2.79 mm 0 W/m2
18:16 0.4 °C -0.6 °C 1011.7 hPa ENE 8 km/h 12.9 km/h 93% 2.03 mm 0 W/m2
18:22 0.4 °C -0.6 °C 1011.7 hPa ENE 9.7 km/h 9.7 km/h 93% 1.27 mm 0 W/m2
18:28 0.4 °C -0.6 °C 1011.7 hPa East 6.4 km/h 9.7 km/h 93% 1.27 mm 0 W/m2
18:34 0.4 °C -0.7 °C 1011.7 hPa ENE 6.4 km/h 14.5 km/h 92% 4.57 mm 0 W/m2
18:40 0.4 °C -0.6 °C 1011.7 hPa ENE 8 km/h 8 km/h 93% 3.3 mm 0 W/m2
18:46 0.5 °C -0.5 °C 1011.7 hPa East 4.8 km/h 8 km/h 93% 1.78 mm 0 W/m2
18:52 0.5 °C -0.5 °C 1011.4 hPa NNE 4.8 km/h 6.4 km/h 93% 1.78 mm 0 W/m2
18:58 0.5 °C -0.5 °C 1011.4 hPa ESE 4.8 km/h 12.9 km/h 93% 1.02 mm 0 W/m2
19:04 0.5 °C -0.5 °C 1011.4 hPa ENE 6.4 km/h 8 km/h 93% 0 mm 0 W/m2
19:10 0.6 °C -0.4 °C 1011.4 hPa ENE 6.4 km/h 6.4 km/h 93% 0 mm 0 W/m2
19:16 0.6 °C -0.4 °C 1011.4 hPa ENE 6.4 km/h 11.3 km/h 93% 0 mm 0 W/m2
19:22 0.6 °C -0.4 °C 1011.1 hPa East 6.4 km/h 9.7 km/h 93% 0 mm 0 W/m2
19:30 0.6 °C -0.4 °C 1010.7 hPa SE 8 km/h 9.7 km/h 93% 0 mm 0 W/m2
19:36 0.6 °C -0.4 °C 1011.1 hPa East 6.4 km/h 16.1 km/h 93% 0 mm 0 W/m2
19:42 0.6 °C -0.4 °C 1011.1 hPa East 4.8 km/h 6.4 km/h 93% 0 mm 0 W/m2
19:48 0.6 °C -0.4 °C 1011.1 hPa ENE 3.2 km/h 8 km/h 93% 0 mm 0 W/m2
19:54 0.7 °C -0.3 °C 1011.1 hPa East 4.8 km/h 4.8 km/h 93% 0 mm 0 W/m2
20:00 0.7 °C -0.3 °C 1011.1 hPa ENE 4.8 km/h 8 km/h 93% 0 mm 0 W/m2
20:06 0.7 °C -0.3 °C 1011.1 hPa East 6.4 km/h 9.7 km/h 93% 0 mm 0 W/m2
20:12 0.8 °C -0.2 °C 1010.7 hPa ENE 6.4 km/h 8 km/h 93% 0 mm 0 W/m2
20:18 0.8 °C -0.2 °C 1010.7 hPa ENE 6.4 km/h 11.3 km/h 93% 0 mm 0 W/m2
20:24 0.8 °C -0.2 °C 1010.7 hPa East 6.4 km/h 8 km/h 93% 0 mm 0 W/m2
20:30 0.8 °C -0.2 °C 1010.4 hPa NE 6.4 km/h 6.4 km/h 93% 0 mm 0 W/m2
20:36 0.8 °C -0.2 °C 1010.4 hPa East 4.8 km/h 6.4 km/h 93% 0 mm 0 W/m2
20:42 0.8 °C -0.2 °C 1010.4 hPa ENE 4.8 km/h 8 km/h 93% 0 mm 0 W/m2
20:48 0.9 °C -0.1 °C 1010.4 hPa East 4.8 km/h 11.3 km/h 93% 0 mm 0 W/m2
20:54 0.9 °C -0.1 °C 1010.4 hPa East 4.8 km/h 6.4 km/h 93% 0 mm 0 W/m2
21:00 0.9 °C -0.1 °C 1010.4 hPa ENE 4.8 km/h 11.3 km/h 93% 0 mm 0 W/m2
21:06 0.9 °C -0.1 °C 1010.4 hPa ENE 6.4 km/h 11.3 km/h 93% 0 mm 0 W/m2
21:12 0.9 °C -0.1 °C 1010.4 hPa ENE 6.4 km/h 8 km/h 93% 0 mm 0 W/m2
21:18 0.9 °C -0.1 °C 1010.4 hPa ENE 6.4 km/h 8 km/h 93% 0 mm 0 W/m2
21:24 0.9 °C -0.1 °C 1010.4 hPa East 4.8 km/h 6.4 km/h 93% 0 mm 0 W/m2
21:30 0.9 °C -0.1 °C 1010.4 hPa NE 4.8 km/h 4.8 km/h 93% 0 mm 0 W/m2
21:36 0.9 °C -0.1 °C 1010.4 hPa East 4.8 km/h 4.8 km/h 93% 0 mm 0 W/m2
21:42 0.9 °C -0.1 °C 1010.4 hPa East 3.2 km/h 3.2 km/h 93% 0 mm 0 W/m2
21:48 0.9 °C -0.1 °C 1010.4 hPa ENE 4.8 km/h 4.8 km/h 93% 0 mm 0 W/m2
21:54 0.9 °C -0.1 °C 1010.4 hPa NE 6.4 km/h 8 km/h 93% 0 mm 0 W/m2
22:00 0.9 °C -0.1 °C 1010.4 hPa NE 6.4 km/h 6.4 km/h 93% 0 mm 0 W/m2
22:06 0.9 °C -0.1 °C 1010 hPa ENE 4.8 km/h 6.4 km/h 93% 0 mm 0 W/m2
22:12 0.9 °C -0.1 °C 1010 hPa ENE 4.8 km/h 4.8 km/h 93% 0 mm 0 W/m2
22:18 0.9 °C -0.1 °C 1010 hPa ENE 3.2 km/h 6.4 km/h 93% 0 mm 0 W/m2
22:24 0.9 °C -0.1 °C 1010 hPa ENE 4.8 km/h 4.8 km/h 93% 0 mm 0 W/m2
22:30 0.9 °C -0.1 °C 1010 hPa ENE 3.2 km/h 4.8 km/h 93% 0 mm 0 W/m2
22:36 0.9 °C -0.1 °C 1010 hPa ENE 3.2 km/h 4.8 km/h 93% 0 mm 0 W/m2
22:42 0.9 °C -0.1 °C 1010.4 hPa ENE 4.8 km/h 6.4 km/h 93% 0 mm 0 W/m2
22:48 0.9 °C -0.1 °C 1010.4 hPa East 3.2 km/h 8 km/h 93% 0 mm 0 W/m2
22:54 0.8 °C -0.2 °C 1010.4 hPa ENE 4.8 km/h 4.8 km/h 93% 0 mm 0 W/m2
23:00 0.9 °C -0.1 °C 1010 hPa NE 4.8 km/h 8 km/h 93% 0 mm 0 W/m2
23:06 0.9 °C -0.1 °C 1010 hPa ENE 4.8 km/h 8 km/h 93% 0 mm 0 W/m2
23:08 0.9 °C -0.1 °C 1010 hPa ENE 4.8 km/h 8 km/h 93% 0 mm 0 W/m2
23:14 0.9 °C -0.1 °C 1010 hPa East 4.8 km/h 8 km/h 93% 0 mm 0 W/m2
23:20 0.9 °C -0.1 °C 1009.7 hPa ESE 4.8 km/h 4.8 km/h 93% 0 mm 0 W/m2
23:26 0.9 °C -0.1 °C 1009.7 hPa East 6.4 km/h 9.7 km/h 93% 0 mm 0 W/m2
23:32 0.9 °C -0.1 °C 1009.7 hPa ENE 4.8 km/h 4.8 km/h 93% 0 mm 0 W/m2
23:38 0.9 °C -0.1 °C 1009.7 hPa East 4.8 km/h 4.8 km/h 93% 0 mm 0 W/m2
23:44 1.1 °C 0.1 °C 1009.7 hPa ENE 4.8 km/h 6.4 km/h 93% 0 mm 0 W/m2
23:50 1.1 °C 0.1 °C 1009.7 hPa ENE 3.2 km/h 3.2 km/h 93% 0 mm 0 W/m2
23:56 1.1 °C 0.1 °C 1009.7 hPa ENE 3.2 km/h 8 km/h 93% 0 mm 0 W/m2
Country Meadow, Clay, NY, USA
Compliments of Weather Underground - 2 mb